Time;durP1;ratioP1;P1;durP2;ratioP2;P2;SDS_P1;SDS_P2;PMS_P1;PMS_P2;Temp;Humidity;BMP_temperature;BMP_pressure;BME280_temperature;BME280_humidity;BME280_pressure;Samples;Min_cycle;Max_cycle;Signal;HPM_P1;HPM_P2
2021/12/30 00:00:39;;;;;;;;;;;;;;;5.91;72.56;100321.89;1666887;85;20121;-59
2021/12/30 00:03:05;;;;;;;;;;;;;;;5.84;71.77;100320.41;1670412;83;20335;-59
2021/12/30 00:05:32;;;;;;;;;;;;;;;5.81;72.56;100315.53;1695740;84;20185;-60
2021/12/30 00:08:05;;;;;;;;;;;;;;;6.12;70.04;100315.94;1681232;84;20204;-59
2021/12/30 00:10:31;;;;;;;;;;;;;;;6.14;68.98;100322.23;1698319;84;21158;-60
2021/12/30 00:12:58;;;;;;;;;;;;;;;6.04;69.65;100324.45;1692687;84;20274;-59
2021/12/30 00:15:25;;;;;;;;;;;;;;;6.29;68.44;100331.09;1680973;84;20151;-60
2021/12/30 00:17:51;;;;;;;;;;;;;;;6.29;67.87;100325.92;1695830;84;20171;-58
2021/12/30 00:20:18;;;;;;;;;;;;;;;6.05;68.72;100327.37;1704249;84;20611;-59
2021/12/30 00:22:44;;;;;;;;;;;;;;;6.01;68.42;100328.64;1704171;84;21172;-60
2021/12/30 00:25:12;;;;;;;;;;;;;;;5.90;69.17;100330.14;1701130;84;20688;-59
2021/12/30 00:27:40;;;;;;;;;;;;;;;5.83;70.12;100327.37;1701710;84;20139;-58
2021/12/30 00:30:09;;;;;;;;;;;;;;;6.00;69.43;100331.39;1689003;84;20091;-59
2021/12/30 00:32:36;;;;;;;;;;;;;;;5.93;69.05;100323.41;1704032;84;20239;-59
2021/12/30 00:35:03;;;;;;;;;;;;;;;6.07;67.62;100327.23;1701829;84;21109;-59
2021/12/30 00:37:30;;;;;;;;;;;;;;;6.24;67.42;100328.94;1689457;84;20148;-59
2021/12/30 00:39:57;;;;;;;;;;;;;;;6.44;66.10;100323.54;1671536;84;20158;-58
2021/12/30 00:42:23;;;;;;;;;;;;;;;6.61;65.52;100322.66;1704299;82;20142;-59
2021/12/30 00:44:51;;;;;;;;;;;;;;;6.50;66.15;100330.22;1703868;82;20218;-58
2021/12/30 00:47:19;;;;;;;;;;;;;;;6.69;64.08;100327.06;1704847;82;22355;-58
2021/12/30 00:49:45;;;;;;;;;;;;;;;6.95;62.68;100323.92;1704919;82;20157;-58
2021/12/30 00:52:12;;;;;;;;;;;;;;;6.83;61.22;100320.00;1704294;82;20147;-59
2021/12/30 00:54:38;;;;;;;;;;;;;;;6.64;62.20;100328.03;1704700;82;21184;-59
2021/12/30 00:57:05;;;;;;;;;;;;;;;5.82;67.47;100335.27;1701206;84;20088;-58
2021/12/30 00:59:31;;;;;;;;;;;;;;;5.77;71.19;100340.08;1701744;84;21158;-58
2021/12/30 01:01:57;;;;;;;;;;;;;;;5.55;72.87;100340.05;1672983;84;20116;-59
2021/12/30 01:04:23;;;;;;;;;;;;;;;5.57;75.45;100340.25;1689042;84;20119;-58
2021/12/30 01:06:52;;;;;;;;;;;;;;;5.81;75.58;100342.22;1685722;84;20504;-59
2021/12/30 01:09:18;;;;;;;;;;;;;;;6.07;73.02;100339.69;1704847;84;20514;-58
2021/12/30 01:11:44;;;;;;;;;;;;;;;6.27;71.74;100339.48;1701773;84;21115;-58
2021/12/30 01:14:23;;;;;;;;;;;;;;;6.45;70.18;100335.55;1686791;84;20222;-58
2021/12/30 01:16:47;;;;;;;;;;;;;;;6.69;68.06;100339.53;1702850;83;20142;-59
2021/12/30 01:21:46;;;;;;;;;;;;;;;7.00;65.71;100337.69;1685379;84;20409;-60
2021/12/30 01:24:13;;;;;;;;;;;;;;;7.07;65.14;100333.50;1684619;84;22426;-60
2021/12/30 01:26:40;;;;;;;;;;;;;;;6.46;68.03;100348.33;1684765;84;20811;-61
2021/12/30 01:29:06;;;;;;;;;;;;;;;6.46;71.53;100340.55;1695763;82;20165;-60
2021/12/30 01:31:33;;;;;;;;;;;;;;;6.28;76.57;100339.80;1700610;82;20181;-60
2021/12/30 01:34:01;;;;;;;;;;;;;;;6.23;73.69;100337.68;1694788;83;20212;-60
2021/12/30 01:36:28;;;;;;;;;;;;;;;6.38;73.49;100345.70;1697010;84;21330;-60
2021/12/30 01:38:55;;;;;;;;;;;;;;;5.84;78.44;100340.62;1694698;84;20442;-60
2021/12/30 01:41:22;;;;;;;;;;;;;;;5.95;79.09;100342.20;1684800;84;20432;-60
2021/12/30 01:43:51;;;;;;;;;;;;;;;6.02;78.68;100341.92;1696544;83;20194;-60
2021/12/30 01:46:18;;;;;;;;;;;;;;;6.13;77.48;100340.03;1696828;82;20086;-57
2021/12/30 01:48:47;;;;;;;;;;;;;;;6.27;75.94;100336.89;1698998;82;21175;-57
2021/12/30 01:51:13;;;;;;;;;;;;;;;6.32;74.42;100336.75;1698000;82;20154;-59
2021/12/30 01:53:41;;;;;;;;;;;;;;;6.38;73.83;100337.12;1698751;84;20158;-58
2021/12/30 01:56:07;;;;;;;;;;;;;;;6.54;72.53;100336.70;1697195;82;20220;-59
2021/12/30 01:58:36;;;;;;;;;;;;;;;6.21;75.77;100336.20;1699559;82;20280;-60
2021/12/30 02:01:01;;;;;;;;;;;;;;;6.41;75.52;100344.10;1694306;83;21843;-58
2021/12/30 02:03:30;;;;;;;;;;;;;;;5.88;79.67;100342.92;1695478;84;20507;-59
2021/12/30 02:05:56;;;;;;;;;;;;;;;5.99;80.35;100345.30;1685903;84;20168;-59
2021/12/30 02:08:25;;;;;;;;;;;;;;;6.15;78.65;100345.89;1693839;84;21436;-59
2021/12/30 02:10:52;;;;;;;;;;;;;;;6.41;75.95;100349.28;1676962;84;20354;-59
2021/12/30 02:13:21;;;;;;;;;;;;;;;6.15;76.94;100351.06;1701727;84;22285;-60
2021/12/30 02:15:49;;;;;;;;;;;;;;;5.83;80.72;100353.69;1701727;84;21105;-59
2021/12/30 02:18:16;;;;;;;;;;;;;;;6.05;80.02;100357.12;1698315;84;20514;-60
2021/12/30 02:20:45;;;;;;;;;;;;;;;6.30;76.83;100355.52;1701872;84;20217;-59
2021/12/30 02:23:17;;;;;;;;;;;;;;;6.49;74.78;100361.45;1701692;84;20218;-60
2021/12/30 02:25:47;;;;;;;;;;;;;;;6.44;74.35;100360.62;1701664;83;21152;-59
2021/12/30 02:28:15;;;;;;;;;;;;;;;6.29;73.68;100359.09;1701288;84;20143;-59
2021/12/30 02:30:41;;;;;;;;;;;;;;;5.90;78.56;100370.25;1701829;84;20181;-59
2021/12/30 02:33:08;;;;;;;;;;;;;;;6.04;79.02;100363.27;1702005;84;20102;-60
2021/12/30 02:35:34;;;;;;;;;;;;;;;5.91;79.71;100366.72;1701677;83;20179;-59
2021/12/30 02:38:00;;;;;;;;;;;;;;;5.72;81.93;100370.28;1701847;84;21199;-59
2021/12/30 02:40:28;;;;;;;;;;;;;;;6.05;80.98;100367.48;1701403;84;20137;-57
2021/12/30 02:42:56;;;;;;;;;;;;;;;5.89;80.80;100372.51;1701832;84;20117;-58
2021/12/30 02:45:23;;;;;;;;;;;;;;;5.59;83.43;100365.95;1701523;84;20094;-58
2021/12/30 02:47:49;;;;;;;;;;;;;;;5.91;83.49;100369.30;1698829;83;20436;-58
2021/12/30 02:50:15;;;;;;;;;;;;;;;5.98;82.27;100370.81;1701164;84;21147;-60
2021/12/30 02:52:43;;;;;;;;;;;;;;;5.96;81.55;100373.56;1701835;83;20619;-60
2021/12/30 02:55:10;;;;;;;;;;;;;;;6.05;81.41;100379.61;1701665;84;20114;-58
2021/12/30 02:57:36;;;;;;;;;;;;;;;6.04;80.87;100383.16;1701740;84;20307;-58
2021/12/30 03:00:05;;;;;;;;;;;;;;;5.96;81.05;100382.63;1701459;84;20233;-59
2021/12/30 03:02:31;;;;;;;;;;;;;;;6.23;77.02;100379.09;1702076;84;21134;-58
2021/12/30 03:04:58;;;;;;;;;;;;;;;5.86;78.53;100379.27;1703030;83;20138;-58
2021/12/30 03:07:24;;;;;;;;;;;;;;;5.66;82.14;100379.11;1702834;83;20087;-58
2021/12/30 03:09:52;;;;;;;;;;;;;;;5.38;84.48;100377.88;1705656;83;21235;-58
2021/12/30 03:12:18;;;;;;;;;;;;;;;5.21;86.13;100376.07;1704355;83;20210;-58
2021/12/30 03:14:44;;;;;;;;;;;;;;;5.24;85.82;100378.38;1702996;83;21849;-58
2021/12/30 03:17:13;;;;;;;;;;;;;;;5.40;83.38;100386.28;1703368;83;20515;-58
2021/12/30 03:19:39;;;;;;;;;;;;;;;5.53;79.39;100387.21;1704866;83;20126;-58
2021/12/30 03:22:06;;;;;;;;;;;;;;;5.40;81.44;100389.36;1704761;83;20459;-59
2021/12/30 03:24:32;;;;;;;;;;;;;;;5.15;83.59;100387.78;1704705;83;20170;-58
2021/12/30 03:26:58;;;;;;;;;;;;;;;5.08;86.10;100390.16;1707644;83;21166;-59
2021/12/30 03:29:30;;;;;;;;;;;;;;;5.26;85.46;100391.46;1686846;84;20458;-60
2021/12/30 03:31:56;;;;;;;;;;;;;;;5.42;84.20;100392.14;1701974;82;20090;-58
2021/12/30 03:34:22;;;;;;;;;;;;;;;5.64;83.21;100398.62;1703047;82;21027;-59
2021/12/30 03:36:49;;;;;;;;;;;;;;;5.63;82.93;100401.38;1700047;82;20248;-58
2021/12/30 03:39:15;;;;;;;;;;;;;;;6.06;80.22;100401.47;1698258;82;20741;-59
2021/12/30 03:41:41;;;;;;;;;;;;;;;6.11;79.09;100398.91;1700506;82;20171;-59
2021/12/30 03:44:08;;;;;;;;;;;;;;;6.35;75.34;100392.59;1698781;82;20128;-59
2021/12/30 03:46:34;;;;;;;;;;;;;;;6.31;73.25;100397.75;1696849;82;20180;-59
2021/12/30 03:49:01;;;;;;;;;;;;;;;6.49;72.92;100395.93;1668960;84;20217;-59
2021/12/30 03:51:29;;;;;;;;;;;;;;;6.34;72.57;100400.85;1698427;83;21177;-58
2021/12/30 03:54:00;;;;;;;;;;;;;;;6.29;71.52;100407.47;1694004;83;20553;-59
2021/12/30 03:56:28;;;;;;;;;;;;;;;6.45;72.80;100417.11;1670044;84;20263;-60
2021/12/30 03:58:55;;;;;;;;;;;;;;;6.07;74.50;100413.92;1698076;82;20398;-59
2021/12/30 04:01:23;;;;;;;;;;;;;;;6.02;76.24;100415.67;1711967;78;20150;-59
2021/12/30 04:03:50;;;;;;;;;;;;;;;5.98;76.40;100417.39;1715703;83;21180;-59
2021/12/30 04:06:19;;;;;;;;;;;;;;;5.88;77.97;100414.88;1714866;83;20222;-59
2021/12/30 04:08:46;;;;;;;;;;;;;;;6.16;75.70;100414.80;1713634;83;20509;-59
2021/12/30 04:11:12;;;;;;;;;;;;;;;6.06;75.11;100413.13;1715620;83;20481;-59
2021/12/30 04:13:38;;;;;;;;;;;;;;;5.95;75.75;100417.23;1715179;83;20468;-59
2021/12/30 04:16:11;;;;;;;;;;;;;;;6.16;74.08;100414.80;1711915;83;21150;-60
2021/12/30 04:18:38;;;;;;;;;;;;;;;6.48;70.26;100407.75;1693717;83;20419;-59
2021/12/30 04:21:04;;;;;;;;;;;;;;;6.44;70.36;100408.53;1707943;83;20632;-59
2021/12/30 04:23:31;;;;;;;;;;;;;;;6.23;70.92;100407.56;1707284;83;20224;-59
2021/12/30 04:25:57;;;;;;;;;;;;;;;6.24;71.53;100407.89;1717101;83;20153;-59
2021/12/30 04:28:23;;;;;;;;;;;;;;;6.54;68.36;100410.52;1715501;83;21160;-60
2021/12/30 04:30:50;;;;;;;;;;;;;;;6.53;67.58;100399.84;1715326;83;20301;-59
2021/12/30 04:33:16;;;;;;;;;;;;;;;6.67;66.61;100402.84;1716315;83;20307;-59
2021/12/30 04:35:43;;;;;;;;;;;;;;;6.56;67.04;100414.27;1715038;83;20229;-59
2021/12/30 04:38:11;;;;;;;;;;;;;;;6.47;67.62;100410.80;1717417;83;20137;-59
2021/12/30 04:40:38;;;;;;;;;;;;;;;6.33;68.54;100413.47;1714911;83;21600;-59
2021/12/30 04:43:04;;;;;;;;;;;;;;;6.49;67.62;100414.06;1717120;83;20239;-59
2021/12/30 04:45:31;;;;;;;;;;;;;;;6.37;67.14;100415.28;1718369;83;20207;-59
2021/12/30 04:47:57;;;;;;;;;;;;;;;6.26;69.08;100424.10;1717023;83;20137;-59
2021/12/30 04:50:25;;;;;;;;;;;;;;;5.87;70.32;100419.69;1715887;83;20145;-60
2021/12/30 04:52:51;;;;;;;;;;;;;;;5.60;75.59;100423.16;1714921;83;21187;-59
2021/12/30 04:55:18;;;;;;;;;;;;;;;5.74;76.68;100425.73;1717169;83;20151;-59
2021/12/30 04:57:44;;;;;;;;;;;;;;;5.77;76.67;100427.54;1714447;83;20089;-58
2021/12/30 05:00:11;;;;;;;;;;;;;;;5.73;77.32;100430.09;1718099;83;20165;-59
2021/12/30 05:05:23;;;;;;;;;;;;;;;5.80;77.63;100432.91;1693380;84;21184;-59
2021/12/30 05:07:50;;;;;;;;;;;;;;;6.22;75.27;100432.32;1694876;84;20107;-59
2021/12/30 05:10:19;;;;;;;;;;;;;;;5.98;77.41;100446.66;1698143;84;20233;-60
2021/12/30 05:12:45;;;;;;;;;;;;;;;5.99;77.58;100448.31;1694919;84;20177;-59
2021/12/30 05:15:11;;;;;;;;;;;;;;;5.84;80.18;100452.34;1695335;84;20321;-61
2021/12/30 05:17:41;;;;;;;;;;;;;;;6.22;78.54;100456.91;1695161;84;21063;-59
2021/12/30 05:20:08;;;;;;;;;;;;;;;6.27;76.01;100458.56;1693782;84;20131;-59
2021/12/30 05:22:35;;;;;;;;;;;;;;;6.23;75.18;100459.34;1697849;84;20091;-59
2021/12/30 05:25:01;;;;;;;;;;;;;;;6.49;72.82;100459.86;1713302;83;20727;-59
2021/12/30 05:27:30;;;;;;;;;;;;;;;6.76;70.11;100465.38;1716861;83;20231;-59
2021/12/30 05:29:56;;;;;;;;;;;;;;;6.75;69.05;100466.34;1716509;83;21088;-59
2021/12/30 05:32:23;;;;;;;;;;;;;;;6.71;69.37;100463.73;1716514;83;20123;-61
2021/12/30 05:34:51;;;;;;;;;;;;;;;6.91;66.99;100476.80;1716277;83;20099;-59
2021/12/30 05:37:17;;;;;;;;;;;;;;;6.74;67.76;100481.54;1716142;82;20172;-59
2021/12/30 05:39:47;;;;;;;;;;;;;;;6.87;66.38;100478.56;1716690;83;20233;-58
2021/12/30 05:42:13;;;;;;;;;;;;;;;6.61;69.13;100480.66;1714746;83;21149;-60
2021/12/30 05:44:40;;;;;;;;;;;;;;;6.61;68.97;100482.44;1711027;83;20182;-60
2021/12/30 05:47:07;;;;;;;;;;;;;;;6.90;66.95;100479.06;1714582;83;20091;-60
2021/12/30 05:49:34;;;;;;;;;;;;;;;6.90;65.15;100482.15;1712750;83;21083;-59
2021/12/30 05:52:02;;;;;;;;;;;;;;;7.09;63.42;100487.59;1715696;83;20134;-59
2021/12/30 05:54:32;;;;;;;;;;;;;;;7.35;62.98;100488.36;1715928;83;21159;-61
2021/12/30 05:56:58;;;;;;;;;;;;;;;7.17;63.36;100486.33;1716483;83;20175;-59
2021/12/30 05:59:24;;;;;;;;;;;;;;;7.24;65.08;100487.34;1715954;83;20174;-60
2021/12/30 06:01:51;;;;;;;;;;;;;;;7.53;62.98;100486.45;1716030;83;20225;-60
2021/12/30 06:04:17;;;;;;;;;;;;;;;7.41;64.03;100489.02;1711941;83;20149;-60
2021/12/30 06:06:43;;;;;;;;;;;;;;;7.53;63.59;100485.64;1714572;83;21173;-59
2021/12/30 06:09:10;;;;;;;;;;;;;;;7.70;62.13;100487.81;1717560;83;20487;-59
2021/12/30 06:11:37;;;;;;;;;;;;;;;7.91;62.05;100488.66;1716853;83;20554;-62
2021/12/30 06:14:06;;;;;;;;;;;;;;;7.69;61.69;100488.31;1717731;83;20425;-60
2021/12/30 06:16:34;;;;;;;;;;;;;;;7.76;61.29;100489.27;1716825;83;20439;-62
2021/12/30 06:19:02;;;;;;;;;;;;;;;7.79;60.75;100494.15;1716175;83;21106;-59
2021/12/30 06:21:29;;;;;;;;;;;;;;;7.94;60.21;100495.64;1716780;82;21113;-61
2021/12/30 06:23:59;;;;;;;;;;;;;;;8.12;60.43;100496.80;1689978;84;20158;-61
2021/12/30 06:26:27;;;;;;;;;;;;;;;8.60;58.99;100489.19;1699909;83;20197;-60
2021/12/30 06:28:54;;;;;;;;;;;;;;;8.38;57.97;100487.59;1688537;84;20091;-60
2021/12/30 06:31:20;;;;;;;;;;;;;;;8.38;59.08;100482.41;1694863;84;22393;-59
2021/12/30 06:33:46;;;;;;;;;;;;;;;7.77;60.72;100482.33;1689232;84;20252;-60
2021/12/30 06:36:14;;;;;;;;;;;;;;;8.37;60.37;100491.18;1707991;82;20225;-60
2021/12/30 06:38:41;;;;;;;;;;;;;;;8.65;59.42;100492.94;1721477;83;20153;-61
2021/12/30 06:41:07;;;;;;;;;;;;;;;8.68;58.68;100492.61;1719271;83;20256;-60
2021/12/30 06:43:36;;;;;;;;;;;;;;;8.94;57.76;100491.56;1726374;83;21116;-61
2021/12/30 06:46:05;;;;;;;;;;;;;;;9.04;57.53;100496.59;1714853;83;20231;-60
2021/12/30 06:48:33;;;;;;;;;;;;;;;8.60;58.04;100499.13;1719441;83;20191;-60
2021/12/30 06:51:00;;;;;;;;;;;;;;;8.65;58.52;100509.83;1708161;83;20637;-61
2021/12/30 06:53:26;;;;;;;;;;;;;;;8.27;61.27;100503.47;1706453;83;20142;-62
2021/12/30 06:55:53;;;;;;;;;;;;;;;7.92;64.25;100503.28;1713394;83;21141;-61
2021/12/30 06:58:20;;;;;;;;;;;;;;;8.32;62.25;100507.69;1714206;82;20487;-60
2021/12/30 07:00:47;;;;;;;;;;;;;;;7.90;62.95;100509.91;1714134;83;20174;-62
2021/12/30 07:03:13;;;;;;;;;;;;;;;7.83;65.65;100512.81;1691348;83;20214;-65
2021/12/30 07:05:40;;;;;;;;;;;;;;;8.06;65.06;100516.91;1682336;84;20149;-63
2021/12/30 07:08:06;;;;;;;;;;;;;;;7.90;65.65;100515.59;1687861;84;21199;-62
2021/12/30 07:10:33;;;;;;;;;;;;;;;7.89;66.49;100516.57;1684580;84;20313;-64
2021/12/30 07:12:59;;;;;;;;;;;;;;;7.89;66.57;100516.08;1676483;84;20184;-64
2021/12/30 07:15:25;;;;;;;;;;;;;;;8.01;65.48;100513.50;1680183;84;20261;-61
2021/12/30 07:17:52;;;;;;;;;;;;;;;7.77;67.31;100513.47;1686695;84;20214;-61
2021/12/30 07:20:18;;;;;;;;;;;;;;;7.80;68.89;100511.36;1688129;84;21776;-62
2021/12/30 07:22:45;;;;;;;;;;;;;;;7.37;71.92;100527.09;1688346;84;20236;-64
2021/12/30 07:25:16;;;;;;;;;;;;;;;7.35;74.70;100529.85;1686677;84;20452;-62
2021/12/30 07:27:47;;;;;;;;;;;;;;;7.60;75.32;100541.13;1687839;83;20826;-60
2021/12/30 07:30:15;;;;;;;;;;;;;;;7.77;72.83;100539.41;1688677;84;20142;-61
2021/12/30 07:32:44;;;;;;;;;;;;;;;7.64;74.31;100538.54;1688252;84;21025;-63
2021/12/30 07:35:11;;;;;;;;;;;;;;;7.66;72.50;100541.00;1689144;84;20198;-61
2021/12/30 07:37:37;;;;;;;;;;;;;;;7.37;74.16;100544.75;1687147;84;20182;-63
2021/12/30 07:40:07;;;;;;;;;;;;;;;7.62;75.16;100543.58;1689269;84;20241;-62
2021/12/30 07:42:34;;;;;;;;;;;;;;;7.91;71.32;100530.19;1688258;84;20513;-61
2021/12/30 07:45:00;;;;;;;;;;;;;;;8.14;69.46;100536.88;1676962;84;22201;-61
2021/12/30 07:47:27;;;;;;;;;;;;;;;8.19;68.97;100538.04;1661175;85;20200;-62
2021/12/30 07:49:56;;;;;;;;;;;;;;;8.44;67.63;100533.69;1726180;83;20741;-60
2021/12/30 07:52:24;;;;;;;;;;;;;;;8.33;67.14;100536.58;1721179;82;20456;-62
2021/12/30 07:54:50;;;;;;;;;;;;;;;8.44;66.62;100538.88;1715207;82;20221;-62
2021/12/30 07:57:20;;;;;;;;;;;;;;;8.57;66.22;100525.92;1719400;82;21133;-63
2021/12/30 07:59:44;;;;;;;;;;;;;;;8.42;65.60;100533.05;1713890;83;20525;-59
2021/12/30 08:02:14;;;;;;;;;;;;;;;8.83;63.95;100527.84;1714076;83;20138;-59
2021/12/30 08:04:42;;;;;;;;;;;;;;;8.56;64.06;100534.66;1718939;83;20196;-63
2021/12/30 08:07:09;;;;;;;;;;;;;;;8.23;65.90;100525.06;1719246;82;20163;-61
2021/12/30 08:09:35;;;;;;;;;;;;;;;8.28;69.20;100529.77;1683736;84;21906;-61
2021/12/30 08:12:05;;;;;;;;;;;;;;;8.93;66.48;100527.64;1706732;82;20300;-61
2021/12/30 08:14:32;;;;;;;;;;;;;;;8.36;69.19;100530.25;1681816;84;20162;-61
2021/12/30 08:17:00;;;;;;;;;;;;;;;8.43;70.19;100524.28;1726732;82;20275;-61
2021/12/30 08:19:27;;;;;;;;;;;;;;;8.86;67.22;100522.28;1687356;84;20239;-62
2021/12/30 08:21:54;;;;;;;;;;;;;;;9.36;64.46;100517.30;1706107;82;21121;-61
2021/12/30 08:24:21;;;;;;;;;;;;;;;9.13;64.45;100524.18;1700423;84;20213;-62
2021/12/30 08:26:49;;;;;;;;;;;;;;;9.05;66.56;100529.41;1690959;84;20213;-60
2021/12/30 08:29:16;;;;;;;;;;;;;;;9.43;65.48;100520.86;1696223;84;20241;-61
2021/12/30 08:31:43;;;;;;;;;;;;;;;9.07;67.02;100528.27;1707757;83;20249;-61
2021/12/30 08:34:09;;;;;;;;;;;;;;;9.20;69.01;100526.44;1705133;83;21135;-61
2021/12/30 08:36:37;;;;;;;;;;;;;;;9.06;69.05;100524.05;1675631;84;20244;-61
2021/12/30 08:39:03;;;;;;;;;;;;;;;9.18;68.89;100517.52;1716003;82;20212;-60
2021/12/30 08:41:30;;;;;;;;;;;;;;;9.22;68.05;100520.10;1688236;84;21823;-61
2021/12/30 08:43:56;;;;;;;;;;;;;;;9.65;65.33;100523.17;1723695;83;20177;-63
2021/12/30 08:46:22;;;;;;;;;;;;;;;9.66;63.98;100520.91;1723825;83;21960;-61
2021/12/30 08:48:51;;;;;;;;;;;;;;;9.82;62.37;100520.01;1687564;84;20236;-60
2021/12/30 08:51:19;;;;;;;;;;;;;;;9.65;63.12;100513.25;1720627;83;20237;-60
2021/12/30 08:53:45;;;;;;;;;;;;;;;9.57;63.14;100512.80;1681968;84;20239;-62
2021/12/30 08:56:12;;;;;;;;;;;;;;;9.35;65.14;100515.66;1724830;83;20182;-61
2021/12/30 08:58:43;;;;;;;;;;;;;;;9.75;62.44;100525.08;1723623;83;22110;-61
2021/12/30 09:01:12;;;;;;;;;;;;;;;9.15;62.59;100522.23;1722393;83;20082;-61
2021/12/30 09:03:38;;;;;;;;;;;;;;;9.04;66.08;100528.59;1708657;82;21237;-61
2021/12/30 09:06:05;;;;;;;;;;;;;;;9.34;65.84;100524.94;1681271;84;20198;-60
2021/12/30 09:08:32;;;;;;;;;;;;;;;9.17;66.76;100526.30;1714717;82;20217;-59
2021/12/30 09:10:58;;;;;;;;;;;;;;;9.18;68.75;100524.52;1713020;83;21093;-59
2021/12/30 09:13:24;;;;;;;;;;;;;;;9.52;68.06;100528.63;1709678;83;20177;-60
2021/12/30 09:15:51;;;;;;;;;;;;;;;8.90;71.40;100525.37;1678784;84;20247;-61
2021/12/30 09:18:18;;;;;;;;;;;;;;;9.10;69.01;100521.94;1711725;83;20639;-61
2021/12/30 09:20:47;;;;;;;;;;;;;;;8.97;70.70;100529.74;1709153;83;20170;-60
2021/12/30 09:23:15;;;;;;;;;;;;;;;9.08;71.63;100523.88;1684067;84;21187;-62
2021/12/30 09:25:41;;;;;;;;;;;;;;;9.40;69.91;100528.19;1718998;83;20165;-63
2021/12/30 09:28:11;;;;;;;;;;;;;;;9.26;69.78;100525.29;1721734;83;20550;-62
2021/12/30 09:30:37;;;;;;;;;;;;;;;9.27;70.11;100524.80;1723926;82;20118;-62
2021/12/30 09:33:04;;;;;;;;;;;;;;;9.13;69.86;100526.31;1717600;82;20472;-62
2021/12/30 09:35:34;;;;;;;;;;;;;;;8.76;75.04;100529.47;1720608;83;21158;-61
2021/12/30 09:38:00;;;;;;;;;;;;;;;8.53;78.80;100537.12;1721791;83;20154;-62
2021/12/30 09:40:27;;;;;;;;;;;;;;;8.48;79.13;100539.38;1723288;83;20500;-62
2021/12/30 09:43:01;;;;;;;;;;;;;;;8.41;79.38;100534.04;1721519;83;20152;-62
2021/12/30 09:45:24;;;;;;;;;;;;;;;8.43;79.91;100536.46;1722575;83;20171;-62
2021/12/30 09:47:53;;;;;;;;;;;;;;;8.54;80.18;100537.44;1721822;83;22311;-62
2021/12/30 09:50:23;;;;;;;;;;;;;;;7.96;84.83;100531.84;1670804;84;21023;-62
2021/12/30 09:52:50;;;;;;;;;;;;;;;8.16;86.38;100530.56;1723100;83;20240;-62
2021/12/30 09:55:17;;;;;;;;;;;;;;;8.08;86.18;100533.16;1720933;82;20136;-62
2021/12/30 09:57:43;;;;;;;;;;;;;;;7.88;88.42;100533.09;1711069;83;20281;-62
2021/12/30 10:00:12;;;;;;;;;;;;;;;7.52;92.60;100539.31;1712101;83;22623;-60
2021/12/30 10:02:40;;;;;;;;;;;;;;;7.60;93.51;100535.13;1712978;82;20238;-61
2021/12/30 10:05:09;;;;;;;;;;;;;;;8.01;92.96;100529.08;1711975;83;20161;-61
2021/12/30 10:07:39;;;;;;;;;;;;;;;8.05;91.04;100530.87;1716064;83;20534;-60
2021/12/30 10:10:07;;;;;;;;;;;;;;;7.82;93.49;100531.15;1712194;83;20167;-61
2021/12/30 10:12:40;;;;;;;;;;;;;;;7.69;92.06;100532.42;1691223;83;21290;-62
2021/12/30 10:15:07;;;;;;;;;;;;;;;7.67;93.79;100531.75;1711866;83;20491;-61
2021/12/30 10:17:33;;;;;;;;;;;;;;;7.72;91.96;100535.16;1714805;83;20559;-61
2021/12/30 10:20:18;;;;;;;;;;;;;;;7.97;89.55;100529.07;1713631;83;20683;-61
2021/12/30 10:22:46;;;;;;;;;;;;;;;8.08;87.23;100534.45;1712052;83;20192;-59
2021/12/30 10:25:26;;;;;;;;;;;;;;;8.07;84.74;100535.89;1680957;84;20493;-61
2021/12/30 10:27:53;;;;;;;;;;;;;;;8.21;81.49;100531.38;1675101;84;21251;-62
2021/12/30 10:30:33;;;;;;;;;;;;;;;7.90;84.74;100535.86;1671304;84;20556;-63
2021/12/30 10:33:16;;;;;;;;;;;;;;;8.01;81.76;100536.06;1672028;84;20244;-62
2021/12/30 10:35:44;;;;;;;;;;;;;;;7.93;83.47;100535.55;1705065;83;20399;-61
2021/12/30 10:38:11;;;;;;;;;;;;;;;8.25;82.11;100526.99;1711307;83;21051;-64
2021/12/30 10:40:40;;;;;;;;;;;;;;;8.39;81.38;100533.86;1694449;83;20115;-61
2021/12/30 10:43:20;;;;;;;;;;;;;;;9.13;73.68;100519.81;1708588;83;20151;-60
2021/12/30 10:46:09;;;;;;;;;;;;;;;9.39;71.59;100513.03;1708646;83;20312;-61
2021/12/30 10:48:56;;;;;;;;;;;;;;;9.08;70.71;100518.19;1707817;83;20476;-63
2021/12/30 10:51:36;;;;;;;;;;;;;;;9.03;73.88;100522.28;1711725;83;39337;-63
2021/12/30 10:54:28;;;;;;;;;;;;;;;9.32;71.58;100517.32;1712295;83;20219;-59
2021/12/30 10:56:57;;;;;;;;;;;;;;;9.08;72.77;100518.67;1692250;84;20237;-60
2021/12/30 10:59:26;;;;;;;;;;;;;;;9.12;72.95;100511.67;1685810;84;21328;-60
2021/12/30 11:02:04;;;;;;;;;;;;;;;9.11;74.57;100510.55;1688819;84;20192;-63
2021/12/30 11:04:37;;;;;;;;;;;;;;;8.85;78.02;100508.97;1696605;83;21151;-60
2021/12/30 11:07:05;;;;;;;;;;;;;;;9.11;75.66;100495.75;1721040;83;20188;-62
2021/12/30 11:09:31;;;;;;;;;;;;;;;9.24;71.85;100505.16;1722211;83;20492;-60
2021/12/30 11:11:59;;;;;;;;;;;;;;;8.96;74.40;100506.03;1717652;83;20223;-59
2021/12/30 11:14:29;;;;;;;;;;;;;;;9.06;73.20;100508.95;1720942;83;20188;-61
2021/12/30 11:17:17;;;;;;;;;;;;;;;9.23;71.78;100513.11;1721650;82;21959;-60
2021/12/30 11:19:58;;;;;;;;;;;;;;;9.37;69.86;100511.11;1722749;83;21015;-60
2021/12/30 11:22:26;;;;;;;;;;;;;;;9.23;71.19;100515.70;1723551;83;20130;-60
2021/12/30 11:24:55;;;;;;;;;;;;;;;9.18;70.85;100520.61;1723130;83;21130;-61
2021/12/30 11:27:23;;;;;;;;;;;;;;;9.67;67.49;100517.81;1723189;82;20170;-60
2021/12/30 11:29:54;;;;;;;;;;;;;;;9.55;67.36;100517.88;1723858;82;20154;-60
2021/12/30 11:32:25;;;;;;;;;;;;;;;9.62;68.35;100521.40;1723735;82;20111;-59
2021/12/30 11:34:52;;;;;;;;;;;;;;;9.83;65.58;100531.23;1716421;82;21002;-60
2021/12/30 11:37:19;;;;;;;;;;;;;;;9.65;65.21;100524.97;1720984;83;20218;-59
2021/12/30 11:39:47;;;;;;;;;;;;;;;9.74;64.07;100526.07;1721375;83;20184;-59
2021/12/30 11:42:26;;;;;;;;;;;;;;;9.85;62.15;100520.98;1723122;82;21142;-60
2021/12/30 11:44:54;;;;;;;;;;;;;;;9.82;61.00;100520.01;1722133;83;20674;-61
2021/12/30 11:47:36;;;;;;;;;;;;;;;9.74;60.71;100527.88;1724654;83;20233;-62
2021/12/30 11:50:30;;;;;;;;;;;;;;;9.57;59.91;100529.72;1721806;83;20424;-62
2021/12/30 11:53:00;;;;;;;;;;;;;;;9.59;59.80;100532.17;1721293;83;20178;-61
2021/12/30 11:55:48;;;;;;;;;;;;;;;9.36;60.42;100524.30;1720530;83;21080;-60
2021/12/30 11:58:43;;;;;;;;;;;;;;;9.04;60.71;100532.50;1724207;83;20548;-62
2021/12/30 12:01:17;;;;;;;;;;;;;;;8.97;62.63;100523.73;1688955;84;20297;-61
2021/12/30 12:03:48;;;;;;;;;;;;;;;9.19;62.02;100523.52;1709246;83;20219;-62
2021/12/30 12:06:43;;;;;;;;;;;;;;;9.28;61.69;100519.94;1707660;83;20220;-62
2021/12/30 12:09:16;;;;;;;;;;;;;;;9.28;61.84;100521.70;1673917;84;21164;-63
2021/12/30 12:11:49;;;;;;;;;;;;;;;8.99;62.27;100534.30;1721329;82;20414;-61
2021/12/30 12:14:27;;;;;;;;;;;;;;;9.03;63.17;100534.78;1709192;83;20090;-61
2021/12/30 12:17:03;;;;;;;;;;;;;;;8.80;63.38;100538.56;1704828;83;20364;-61
2021/12/30 12:19:47;;;;;;;;;;;;;;;8.89;64.45;100546.66;1703597;83;20167;-62
2021/12/30 12:22:21;;;;;;;;;;;;;;;8.68;64.92;100554.98;1706599;82;21115;-60
2021/12/30 12:24:49;;;;;;;;;;;;;;;8.75;65.70;100553.36;1705903;83;20228;-61
2021/12/30 12:27:23;;;;;;;;;;;;;;;9.14;62.33;100550.04;1703839;83;20121;-62
2021/12/30 12:29:55;;;;;;;;;;;;;;;8.84;61.98;100547.66;1705131;83;20098;-61
2021/12/30 12:32:33;;;;;;;;;;;;;;;9.42;60.78;100543.92;1705542;83;20185;-61
2021/12/30 12:35:01;;;;;;;;;;;;;;;9.05;61.05;100551.51;1705811;83;21091;-61
2021/12/30 12:37:40;;;;;;;;;;;;;;;9.19;61.53;100556.03;1704453;83;20554;-61
2021/12/30 12:40:18;;;;;;;;;;;;;;;9.17;60.83;100559.31;1704230;83;20235;-61
2021/12/30 12:42:57;;;;;;;;;;;;;;;9.05;59.77;100564.52;1706294;83;20349;-62
2021/12/30 12:45:29;;;;;;;;;;;;;;;9.03;60.34;100572.98;1704608;83;20500;-61
2021/12/30 12:48:20;;;;;;;;;;;;;;;8.74;61.10;100569.09;1705806;83;21176;-66
2021/12/30 12:50:49;;;;;;;;;;;;;;;8.92;60.89;100568.92;1704675;83;20163;-61
2021/12/30 12:53:28;;;;;;;;;;;;;;;8.97;61.03;100577.84;1706605;83;20472;-62
2021/12/30 12:55:58;;;;;;;;;;;;;;;8.28;63.59;100570.02;1697148;83;20942;-62
2021/12/30 12:58:33;;;;;;;;;;;;;;;8.51;64.63;100577.53;1706461;83;20213;-61
2021/12/30 13:01:01;;;;;;;;;;;;;;;8.73;62.68;100570.89;1706034;83;21135;-62